Rechercher aéroport 
image banner adimage banner adimage banner ad
image banner ad

25CA - Loma Madera Ranch

Situé à Santa Ysabel, United States

ICAO - 25CA, IATA -

Données fournies par Airmate  

Information générale

Coordonnées: N33°10'45" W116°47'33"
Élévation : 3375 feet MSL.
Variation magnétique : 13° East
Voir autres Aéroports à California

Données opérationnelles

Special qualification required
Heure actuelle UTC:
Heure actuelle locale:
Météo à : KRNM - Ramona ( 19 km )
METAR: KRNM 262344Z 29006KT 9SM BKN003 BKN014 22/18 A2995 RMK AO2 T02220183
Voir NOTAMs / SUP AIP / TFR affectant cet aéroport [VIEW]
Fréquences de communication: [VIEW]

Pistes:

Identifiant RWYQFULongueur (ft)Largeur (ft)SurfaceLDA (ft)
06230040GRASS
24230040GRASS

Coordonnées de l'aéroport

Adresse: Santa Ysabel United States

Vue satellite de 25CA